Time;durP1;ratioP1;P1;durP2;ratioP2;P2;SDS_P1;SDS_P2;PMS_P1;PMS_P2;Temp;Humidity;BMP_temperature;BMP_pressure;BME280_temperature;BME280_humidity;BME280_pressure;Samples;Min_cycle;Max_cycle;Signal;HPM_P1;HPM_P2
2023/04/03 00:02:04;;;;;;;3.80;1.70;;;;;;;;;;108000;269;42103;-29
2023/04/03 00:04:41;;;;;;;3.50;1.60;;;;;;;;;;107984;273;38646;-29
2023/04/03 00:07:18;;;;;;;3.30;1.50;;;;;;;;;;107981;277;39653;-29
2023/04/03 00:09:55;;;;;;;3.90;1.80;;;;;;;;;;108012;269;42641;-29
2023/04/03 00:12:31;;;;;;;3.60;1.50;;;;;;;;;;108026;269;42230;-29
2023/04/03 00:15:11;;;;;;;4.20;1.60;;;;;;;;;;107999;269;38852;-29
2023/04/03 00:17:47;;;;;;;3.90;1.70;;;;;;;;;;108020;268;39845;-29
2023/04/03 00:20:27;;;;;;;3.60;1.50;;;;;;;;;;107992;277;42885;-29
2023/04/03 00:23:07;;;;;;;3.20;1.60;;;;;;;;;;107902;276;175748;-29
2023/04/03 00:25:40;;;;;;;3.90;1.40;;;;;;;;;;107918;276;39038;-29
2023/04/03 00:28:18;;;;;;;3.50;1.40;;;;;;;;;;108022;277;40923;-29
2023/04/03 00:30:55;;;;;;;3.10;1.30;;;;;;;;;;108038;269;42950;-29
2023/04/03 00:33:31;;;;;;;3.00;1.30;;;;;;;;;;107987;273;42333;-29
2023/04/03 00:36:12;;;;;;;3.20;1.40;;;;;;;;;;107967;269;38814;-29
2023/04/03 00:38:47;;;;;;;3.60;1.50;;;;;;;;;;108018;273;39722;-29
2023/04/03 00:41:25;;;;;;;3.30;1.50;;;;;;;;;;108010;269;43106;-29
2023/04/03 00:44:20;;;;;;;3.40;1.30;;;;;;;;;;107981;277;42197;-29
2023/04/03 00:46:56;;;;;;;3.50;1.40;;;;;;;;;;107982;277;45830;-29
2023/04/03 00:49:31;;;;;;;3.20;1.50;;;;;;;;;;108017;277;40804;-29
2023/04/03 00:52:07;;;;;;;3.80;1.40;;;;;;;;;;107961;269;43038;-29
2023/04/03 00:54:43;;;;;;;3.90;1.50;;;;;;;;;;107973;269;42414;-29
2023/04/03 00:57:19;;;;;;;3.70;1.30;;;;;;;;;;107999;277;38815;-29
2023/04/03 01:00:02;;;;;;;3.80;1.80;;;;;;;;;;108008;273;39845;-29
2023/04/03 01:02:37;;;;;;;3.30;1.30;;;;;;;;;;108010;268;42951;-29
2023/04/03 01:05:18;;;;;;;2.60;1.10;;;;;;;;;;108031;273;42322;-29
2023/04/03 01:07:58;;;;;;;3.60;1.30;;;;;;;;;;107953;277;39933;-29
2023/04/03 01:10:34;;;;;;;2.80;1.20;;;;;;;;;;107981;273;39736;-29
2023/04/03 01:13:29;;;;;;;2.60;1.20;;;;;;;;;;108028;268;42901;-29
2023/04/03 01:16:08;;;;;;;3.60;1.30;;;;;;;;;;107926;268;43247;-29
2023/04/03 01:18:45;;;;;;;3.40;1.50;;;;;;;;;;108017;268;38778;-29
2023/04/03 01:21:55;;;;;;;2.90;1.20;;;;;;;;;;108045;273;39833;-29
2023/04/03 01:24:41;;;;;;;3.70;1.30;;;;;;;;;;107899;268;42985;-29
2023/04/03 01:27:17;;;;;;;3.10;1.30;;;;;;;;;;107979;276;42144;-29
2023/04/03 01:29:56;;;;;;;3.80;1.30;;;;;;;;;;107966;268;38934;-29
2023/04/03 01:32:33;;;;;;;2.90;1.00;;;;;;;;;;108006;268;39668;-29
2023/04/03 01:35:11;;;;;;;2.90;1.20;;;;;;;;;;108024;276;42832;-29
2023/04/03 01:37:44;;;;;;;3.20;1.30;;;;;;;;;;107647;268;420161;-29
2023/04/03 01:40:21;;;;;;;3.20;1.20;;;;;;;;;;107941;268;38835;-29
2023/04/03 01:42:58;;;;;;;3.30;1.20;;;;;;;;;;108018;273;39835;-29
2023/04/03 01:45:32;;;;;;;3.10;1.10;;;;;;;;;;107989;268;42827;-29
2023/04/03 01:48:13;;;;;;;2.60;1.00;;;;;;;;;;107960;273;48108;-29
2023/04/03 01:50:49;;;;;;;2.70;1.00;;;;;;;;;;107995;276;38805;-29
2023/04/03 01:53:25;;;;;;;2.60;1.20;;;;;;;;;;107995;276;40185;-29
2023/04/03 01:56:01;;;;;;;3.40;1.20;;;;;;;;;;107990;269;43291;-29
2023/04/03 01:58:39;;;;;;;2.90;1.00;;;;;;;;;;108023;273;48416;-29
2023/04/03 02:01:16;;;;;;;3.00;1.10;;;;;;;;;;107987;276;38791;-29
2023/04/03 02:03:54;;;;;;;3.10;1.10;;;;;;;;;;108025;277;40026;-29
2023/04/03 02:06:28;;;;;;;3.30;1.20;;;;;;;;;;107949;273;44190;-29
2023/04/03 02:09:06;;;;;;;2.70;1.00;;;;;;;;;;108030;273;42174;-29
2023/04/03 02:11:43;;;;;;;2.70;1.10;;;;;;;;;;108005;276;38876;-29
2023/04/03 02:14:20;;;;;;;3.00;1.10;;;;;;;;;;107947;276;39691;-29
2023/04/03 02:16:55;;;;;;;2.80;1.00;;;;;;;;;;107976;276;43140;-29
2023/04/03 02:19:30;;;;;;;3.20;1.30;;;;;;;;;;107990;277;42351;-29
2023/04/03 02:22:05;;;;;;;3.00;1.10;;;;;;;;;;108007;268;38770;-29
2023/04/03 02:24:41;;;;;;;2.90;1.10;;;;;;;;;;107983;273;39750;-29
2023/04/03 02:27:20;;;;;;;3.00;1.00;;;;;;;;;;107969;277;43036;-29
2023/04/03 02:29:56;;;;;;;3.30;1.30;;;;;;;;;;107980;277;42230;-29
2023/04/03 02:32:33;;;;;;;3.00;1.10;;;;;;;;;;107934;277;38884;-29
2023/04/03 02:35:12;;;;;;;2.80;1.00;;;;;;;;;;107957;270;39852;-29
2023/04/03 02:37:47;;;;;;;3.20;1.10;;;;;;;;;;107940;273;43015;-29
2023/04/03 02:40:23;;;;;;;2.90;1.10;;;;;;;;;;107934;277;42132;-29
2023/04/03 02:42:58;;;;;;;2.80;0.90;;;;;;;;;;107950;270;38539;-29
2023/04/03 02:45:33;;;;;;;3.20;1.00;;;;;;;;;;107964;277;39863;-29
2023/04/03 02:48:08;;;;;;;2.50;0.90;;;;;;;;;;107900;270;43227;-29
2023/04/03 02:50:42;;;;;;;2.90;1.10;;;;;;;;;;107962;277;42377;-29
2023/04/03 02:53:18;;;;;;;2.60;1.00;;;;;;;;;;107967;277;38892;-29
2023/04/03 02:55:56;;;;;;;3.00;1.10;;;;;;;;;;107927;277;39769;-29
2023/04/03 02:58:31;;;;;;;2.80;1.00;;;;;;;;;;107873;270;42868;-29
2023/04/03 03:01:07;;;;;;;2.90;1.00;;;;;;;;;;107917;273;42308;-29
2023/04/03 03:03:43;;;;;;;2.20;0.90;;;;;;;;;;107948;273;40854;-29
2023/04/03 03:06:22;;;;;;;2.50;1.00;;;;;;;;;;107892;273;39727;-29
2023/04/03 03:08:58;;;;;;;2.90;1.00;;;;;;;;;;107940;277;42869;-29
2023/04/03 03:11:33;;;;;;;2.30;1.00;;;;;;;;;;107940;270;42112;-29
2023/04/03 03:14:07;;;;;;;2.70;0.80;;;;;;;;;;107945;270;39006;-29
2023/04/03 03:16:40;;;;;;;3.00;1.10;;;;;;;;;;107939;270;41007;-29
2023/04/03 03:19:14;;;;;;;2.90;1.10;;;;;;;;;;107905;273;44450;-29
2023/04/03 03:21:51;;;;;;;3.20;1.00;;;;;;;;;;107287;271;896907;-29
2023/04/03 03:24:27;;;;;;;2.50;0.90;;;;;;;;;;107887;270;40273;-29
2023/04/03 03:27:03;;;;;;;2.70;1.00;;;;;;;;;;107977;273;39859;-29
2023/04/03 03:29:37;;;;;;;3.30;1.00;;;;;;;;;;107929;274;42852;-29
2023/04/03 03:32:10;;;;;;;3.60;1.10;;;;;;;;;;107953;270;45018;-29
2023/04/03 03:34:47;;;;;;;3.20;1.00;;;;;;;;;;107954;277;38780;-29
2023/04/03 03:37:20;;;;;;;3.90;1.10;;;;;;;;;;107951;273;40962;-29
2023/04/03 03:39:56;;;;;;;3.20;1.10;;;;;;;;;;107803;277;175742;-29
2023/04/03 03:42:30;;;;;;;2.70;1.00;;;;;;;;;;107947;270;43536;-29
2023/04/03 03:45:06;;;;;;;3.40;1.10;;;;;;;;;;107940;277;39790;-29
2023/04/03 03:47:40;;;;;;;3.60;1.20;;;;;;;;;;107941;273;39684;-29
2023/04/03 03:50:17;;;;;;;2.90;1.10;;;;;;;;;;107928;277;42846;-29
2023/04/03 03:52:58;;;;;;;3.10;1.10;;;;;;;;;;107950;277;42314;-29
2023/04/03 03:55:35;;;;;;;2.90;1.10;;;;;;;;;;107945;277;38927;-29
2023/04/03 03:58:16;;;;;;;3.20;1.10;;;;;;;;;;107980;277;39466;-29
2023/04/03 04:00:51;;;;;;;4.80;1.20;;;;;;;;;;107903;269;49805;-30
2023/04/03 04:03:32;;;;;;;2.70;1.00;;;;;;;;;;107919;270;42357;-30
2023/04/03 04:06:08;;;;;;;3.10;1.20;;;;;;;;;;107955;270;38540;-30
2023/04/03 04:08:43;;;;;;;3.00;1.00;;;;;;;;;;107949;269;39631;-30
2023/04/03 04:11:17;;;;;;;3.70;1.00;;;;;;;;;;107941;277;48936;-30
2023/04/03 04:13:53;;;;;;;3.10;1.00;;;;;;;;;;107961;273;42170;-30
2023/04/03 04:16:28;;;;;;;3.20;0.90;;;;;;;;;;107969;273;38790;-30
2023/04/03 04:19:04;;;;;;;3.00;1.20;;;;;;;;;;107961;277;39768;-29
2023/04/03 04:21:42;;;;;;;2.80;1.00;;;;;;;;;;107967;277;48739;-29
2023/04/03 04:24:17;;;;;;;3.00;1.10;;;;;;;;;;107974;270;42144;-29
2023/04/03 04:26:52;;;;;;;2.90;1.00;;;;;;;;;;108003;273;38493;-29
2023/04/03 04:29:27;;;;;;;3.70;1.20;;;;;;;;;;107941;273;39697;-29
2023/04/03 04:32:02;;;;;;;3.40;1.20;;;;;;;;;;107958;277;49111;-29
2023/04/03 04:34:36;;;;;;;2.90;1.00;;;;;;;;;;107972;277;43264;-29
2023/04/03 04:37:10;;;;;;;2.90;1.00;;;;;;;;;;107986;270;40032;-29
2023/04/03 04:39:49;;;;;;;3.50;1.10;;;;;;;;;;107917;277;40879;-29
2023/04/03 04:42:26;;;;;;;3.80;1.20;;;;;;;;;;107953;270;49188;-29
2023/04/03 04:44:59;;;;;;;3.30;1.00;;;;;;;;;;107958;273;42193;-29
2023/04/03 04:47:33;;;;;;;3.30;1.00;;;;;;;;;;107958;273;38846;-29
2023/04/03 04:50:13;;;;;;;2.60;0.90;;;;;;;;;;107955;273;40876;-29
2023/04/03 04:52:46;;;;;;;2.80;0.90;;;;;;;;;;107933;277;48817;-29
2023/04/03 04:55:23;;;;;;;2.30;0.90;;;;;;;;;;107887;269;175703;-29
2023/04/03 04:57:58;;;;;;;2.80;1.00;;;;;;;;;;108085;277;39954;-29
2023/04/03 05:00:36;;;;;;;3.10;1.00;;;;;;;;;;108007;273;41376;-29
2023/04/03 05:03:10;;;;;;;3.00;1.00;;;;;;;;;;108003;273;42890;-29
2023/04/03 05:05:46;;;;;;;2.60;0.90;;;;;;;;;;108024;270;42118;-29
2023/04/03 05:08:24;;;;;;;3.20;1.00;;;;;;;;;;107985;273;38753;-29
2023/04/03 05:11:00;;;;;;;3.40;1.00;;;;;;;;;;107960;270;39671;-29
2023/04/03 05:13:37;;;;;;;3.10;1.00;;;;;;;;;;108017;273;44093;-29
2023/04/03 05:16:12;;;;;;;3.10;0.90;;;;;;;;;;108017;273;44201;-29
2023/04/03 05:18:46;;;;;;;3.20;1.10;;;;;;;;;;108026;270;39829;-29
2023/04/03 05:21:23;;;;;;;2.40;0.80;;;;;;;;;;107928;277;40249;-29
2023/04/03 05:23:57;;;;;;;2.80;0.90;;;;;;;;;;108136;270;44081;-29
2023/04/03 05:26:33;;;;;;;2.60;1.00;;;;;;;;;;108070;270;42887;-29
2023/04/03 05:29:09;;;;;;;3.40;1.00;;;;;;;;;;108002;273;38841;-29
2023/04/03 05:31:46;;;;;;;2.60;0.90;;;;;;;;;;107935;273;39454;-29
2023/04/03 05:34:21;;;;;;;2.60;1.00;;;;;;;;;;107941;273;42946;-29
2023/04/03 05:37:00;;;;;;;2.40;0.90;;;;;;;;;;107982;277;42240;-29
2023/04/03 05:39:38;;;;;;;4.20;1.20;;;;;;;;;;107994;277;38845;-29
2023/04/03 05:42:17;;;;;;;2.70;0.90;;;;;;;;;;107944;273;39696;-29
2023/04/03 05:44:52;;;;;;;3.20;0.90;;;;;;;;;;107949;270;42855;-29
2023/04/03 05:47:27;;;;;;;3.80;1.10;;;;;;;;;;108025;270;42116;-29
2023/04/03 05:50:01;;;;;;;2.40;0.90;;;;;;;;;;108012;277;38930;-29
2023/04/03 05:52:38;;;;;;;2.30;0.90;;;;;;;;;;107972;270;39484;-29
2023/04/03 05:55:19;;;;;;;3.30;0.90;;;;;;;;;;107975;273;44011;-29
2023/04/03 05:57:59;;;;;;;3.60;1.00;;;;;;;;;;107969;270;43477;-29
2023/04/03 06:00:33;;;;;;;2.90;1.00;;;;;;;;;;107928;271;38535;-29
2023/04/03 06:03:08;;;;;;;3.40;1.00;;;;;;;;;;107962;273;39741;-29
2023/04/03 06:05:42;;;;;;;2.90;1.00;;;;;;;;;;107952;277;43410;-29
2023/04/03 06:08:16;;;;;;;2.70;0.90;;;;;;;;;;107979;270;42387;-29
2023/04/03 06:10:51;;;;;;;2.70;0.90;;;;;;;;;;107871;273;175620;-29
2023/04/03 06:13:25;;;;;;;2.70;0.90;;;;;;;;;;107952;273;39690;-29
2023/04/03 06:16:00;;;;;;;2.70;0.80;;;;;;;;;;107966;270;44072;-29
2023/04/03 06:18:35;;;;;;;3.20;0.90;;;;;;;;;;107965;277;42622;-29
2023/04/03 06:21:09;;;;;;;2.50;0.80;;;;;;;;;;108006;277;38829;-29
2023/04/03 06:23:44;;;;;;;3.20;1.00;;;;;;;;;;107946;273;39727;-29
2023/04/03 06:26:20;;;;;;;3.20;0.90;;;;;;;;;;107967;277;42863;-29
2023/04/03 06:28:55;;;;;;;3.10;0.90;;;;;;;;;;107908;270;41879;-29
2023/04/03 06:31:32;;;;;;;2.30;0.80;;;;;;;;;;107969;270;38765;-29
2023/04/03 06:34:08;;;;;;;2.70;0.90;;;;;;;;;;107935;270;40966;-29
2023/04/03 06:36:46;;;;;;;2.90;0.90;;;;;;;;;;107924;270;44178;-29
2023/04/03 06:39:27;;;;;;;2.30;1.00;;;;;;;;;;107942;270;43341;-29
2023/04/03 06:42:00;;;;;;;3.10;1.00;;;;;;;;;;107946;273;38749;-29
2023/04/03 06:44:37;;;;;;;3.50;1.00;;;;;;;;;;107921;277;39721;-29
2023/04/03 06:47:14;;;;;;;3.30;1.00;;;;;;;;;;107969;273;42827;-29
2023/04/03 06:49:48;;;;;;;3.40;1.20;;;;;;;;;;107958;273;43301;-29
2023/04/03 06:52:23;;;;;;;3.00;1.10;;;;;;;;;;107960;270;39942;-29
2023/04/03 06:54:59;;;;;;;3.50;1.20;;;;;;;;;;107945;277;40833;-29
2023/04/03 06:57:32;;;;;;;3.80;1.10;;;;;;;;;;107931;270;42831;-29
2023/04/03 07:00:10;;;;;;;4.00;1.30;;;;;;;;;;107926;277;42114;-29
2023/04/03 07:02:47;;;;;;;4.00;1.20;;;;;;;;;;107841;273;175624;-29
2023/04/03 07:05:22;;;;;;;4.70;1.40;;;;;;;;;;107910;277;46610;-29
2023/04/03 07:07:57;;;;;;;4.00;1.40;;;;;;;;;;107974;273;42839;-29
2023/04/03 07:10:31;;;;;;;5.00;1.40;;;;;;;;;;107939;270;43383;-29
2023/04/03 07:13:06;;;;;;;4.40;1.30;;;;;;;;;;107942;273;38941;-30
2023/04/03 07:15:39;;;;;;;4.80;1.40;;;;;;;;;;108100;273;45540;-30
2023/04/03 07:18:14;;;;;;;4.40;1.50;;;;;;;;;;107919;277;44113;-30
2023/04/03 07:20:49;;;;;;;4.20;1.40;;;;;;;;;;107847;277;42288;-29
2023/04/03 07:23:26;;;;;;;4.10;1.40;;;;;;;;;;107924;277;38755;-29
2023/04/03 07:26:02;;;;;;;3.90;1.50;;;;;;;;;;108087;273;45683;-30
2023/04/03 07:28:44;;;;;;;4.30;1.30;;;;;;;;;;107871;277;175565;-30
2023/04/03 07:31:26;;;;;;;4.90;1.80;;;;;;;;;;107977;273;42217;-30
2023/04/03 07:34:01;;;;;;;4.00;1.40;;;;;;;;;;107949;277;39930;-29
2023/04/03 07:36:38;;;;;;;3.70;1.40;;;;;;;;;;107970;270;47428;-29
2023/04/03 07:39:15;;;;;;;4.60;1.50;;;;;;;;;;107895;270;42961;-30
2023/04/03 07:41:51;;;;;;;4.40;1.40;;;;;;;;;;107896;268;43132;-30
2023/04/03 07:44:30;;;;;;;4.20;1.30;;;;;;;;;;107939;273;38846;-30
2023/04/03 07:47:09;;;;;;;5.50;1.50;;;;;;;;;;107859;270;39831;-30
2023/04/03 07:49:46;;;;;;;4.50;1.70;;;;;;;;;;107918;273;43956;-30
2023/04/03 07:52:23;;;;;;;4.40;1.50;;;;;;;;;;107993;273;41828;-30
2023/04/03 07:55:03;;;;;;;4.80;1.60;;;;;;;;;;107906;273;38829;-30
2023/04/03 07:57:40;;;;;;;4.90;1.50;;;;;;;;;;107993;268;39848;-30
2023/04/03 08:00:17;;;;;;;4.70;1.60;;;;;;;;;;107992;269;42648;-31
2023/04/03 08:02:51;;;;;;;5.10;1.60;;;;;;;;;;107978;277;42139;-30
2023/04/03 08:05:28;;;;;;;5.40;1.60;;;;;;;;;;107988;273;38837;-30
2023/04/03 08:08:05;;;;;;;4.20;1.50;;;;;;;;;;107989;273;39713;-30
2023/04/03 08:10:41;;;;;;;3.90;1.60;;;;;;;;;;107958;273;42782;-30
2023/04/03 08:13:17;;;;;;;4.80;1.60;;;;;;;;;;108008;273;42207;-30
2023/04/03 08:15:56;;;;;;;4.80;1.70;;;;;;;;;;107928;268;39198;-31
2023/04/03 08:18:32;;;;;;;3.70;1.40;;;;;;;;;;107999;273;39703;-31
2023/04/03 08:21:11;;;;;;;4.50;1.60;;;;;;;;;;107996;273;43134;-30
2023/04/03 08:23:48;;;;;;;4.70;1.50;;;;;;;;;;107917;273;42385;-30
2023/04/03 08:26:23;;;;;;;4.20;1.60;;;;;;;;;;107961;273;38858;-29
2023/04/03 08:28:57;;;;;;;4.80;1.60;;;;;;;;;;107993;269;39755;-29
2023/04/03 08:31:33;;;;;;;4.70;1.80;;;;;;;;;;107986;269;42963;-29
2023/04/03 08:34:11;;;;;;;4.70;1.70;;;;;;;;;;107990;277;42131;-29
2023/04/03 08:36:51;;;;;;;4.10;1.50;;;;;;;;;;107930;276;38529;-29
2023/04/03 08:39:26;;;;;;;4.60;1.50;;;;;;;;;;108027;276;39858;-29
2023/04/03 08:42:07;;;;;;;4.70;1.60;;;;;;;;;;108001;269;42816;-29
2023/04/03 08:44:50;;;;;;;4.40;1.60;;;;;;;;;;108016;276;42246;-29
2023/04/03 08:47:47;;;;;;;4.00;1.50;;;;;;;;;;107974;268;38892;-29
2023/04/03 08:50:28;;;;;;;3.70;1.40;;;;;;;;;;108000;268;39811;-29
2023/04/03 08:53:06;;;;;;;;;;;;;;;;;;107990;273;44181;-29
2023/04/03 08:55:47;;;;;;;3.70;1.30;;;;;;;;;;107964;268;41742;-29
2023/04/03 08:58:27;;;;;;;3.90;1.20;;;;;;;;;;107995;273;45049;-29
2023/04/03 09:01:07;;;;;;;4.20;1.30;;;;;;;;;;108000;276;39454;-30
2023/04/03 09:03:45;;;;;;;3.60;1.30;;;;;;;;;;107945;277;42810;-29
2023/04/03 09:06:28;;;;;;;4.00;1.40;;;;;;;;;;107882;277;42262;-28
2023/04/03 09:09:15;;;;;;;4.60;1.50;;;;;;;;;;107982;273;38795;-28
2023/04/03 09:12:08;;;;;;;4.00;1.40;;;;;;;;;;107959;273;39727;-29
2023/04/03 09:14:52;;;;;;;3.90;1.30;;;;;;;;;;107956;276;42871;-29
2023/04/03 09:17:47;;;;;;;3.20;1.40;;;;;;;;;;107920;276;41999;-29
2023/04/03 09:20:40;;;;;;;4.60;1.30;;;;;;;;;;107964;268;39202;-29
2023/04/03 09:23:30;;;;;;;4.00;1.30;;;;;;;;;;107977;273;39708;-29
2023/04/03 09:26:11;;;;;;;4.30;1.50;;;;;;;;;;107975;273;42975;-29
2023/04/03 09:28:45;;;;;;;4.10;1.40;;;;;;;;;;107260;270;896383;-29
2023/04/03 09:31:30;;;;;;;4.20;1.50;;;;;;;;;;107982;276;39178;-29
2023/04/03 09:34:14;;;;;;;3.80;1.30;;;;;;;;;;108035;268;39711;-29
2023/04/03 09:36:51;;;;;;;3.50;1.40;;;;;;;;;;107974;273;42598;-29
2023/04/03 09:39:30;;;;;;;3.30;1.20;;;;;;;;;;107530;270;520925;-29
2023/04/03 09:42:13;;;;;;;3.70;1.30;;;;;;;;;;107968;276;38829;-29
2023/04/03 09:45:01;;;;;;;3.80;1.40;;;;;;;;;;107956;273;39650;-29
2023/04/03 09:47:53;;;;;;;4.40;1.40;;;;;;;;;;107946;268;42999;-29
2023/04/03 09:50:30;;;;;;;4.00;1.30;;;;;;;;;;108000;268;42155;-30
2023/04/03 09:53:29;;;;;;;3.70;1.40;;;;;;;;;;107971;276;40069;-30
2023/04/03 09:56:11;;;;;;;3.50;1.30;;;;;;;;;;107888;273;39702;-30
2023/04/03 09:58:50;;;;;;;3.30;1.30;;;;;;;;;;107938;277;43826;-30
2023/04/03 10:01:33;;;;;;;3.90;1.30;;;;;;;;;;107989;273;42123;-29
2023/04/03 10:04:17;;;;;;;4.50;1.40;;;;;;;;;;108034;276;38736;-29
2023/04/03 10:06:54;;;;;;;3.70;1.20;;;;;;;;;;107833;277;192843;-29
2023/04/03 10:09:30;;;;;;;3.40;1.20;;;;;;;;;;107894;277;42967;-29
2023/04/03 10:12:08;;;;;;;3.60;1.20;;;;;;;;;;107930;277;42148;-29
2023/04/03 10:14:58;;;;;;;3.50;1.40;;;;;;;;;;108012;268;38958;-29
2023/04/03 10:17:52;;;;;;;4.10;1.40;;;;;;;;;;107992;268;41115;-30
2023/04/03 10:20:37;;;;;;;3.10;1.30;;;;;;;;;;108007;268;48679;-30
2023/04/03 10:23:29;;;;;;;2.90;1.20;;;;;;;;;;108019;273;43277;-30
2023/04/03 10:26:15;;;;;;;;;;;;;;;;;;107945;273;38948;-30
2023/04/03 10:28:58;;;;;;;3.90;1.50;;;;;;;;;;107926;276;39668;-30
2023/04/03 10:31:41;;;;;;;3.10;1.20;;;;;;;;;;107936;277;42902;-30
2023/04/03 10:34:28;;;;;;;3.40;1.30;;;;;;;;;;108009;276;43262;-30
2023/04/03 10:37:13;;;;;;;3.80;1.40;;;;;;;;;;107981;277;38766;-30
2023/04/03 10:40:03;;;;;;;3.80;1.30;;;;;;;;;;107899;268;39690;-30
2023/04/03 10:42:46;;;;;;;3.70;1.40;;;;;;;;;;107969;268;44025;-29
2023/04/03 10:45:28;;;;;;;3.70;1.50;;;;;;;;;;108013;269;42148;-31
2023/04/03 10:48:11;;;;;;;;;;;;;;;;;;108131;269;38784;-30
2023/04/03 10:51:02;;;;;;;3.30;1.50;;;;;;;;;;108001;276;39914;-30
2023/04/03 10:53:43;;;;;;;3.60;1.30;;;;;;;;;;107977;273;42973;-30
2023/04/03 10:56:26;;;;;;;3.90;1.50;;;;;;;;;;107956;276;42111;-30
2023/04/03 10:59:17;;;;;;;3.60;1.40;;;;;;;;;;108020;273;38811;-30
2023/04/03 11:02:00;;;;;;;3.30;1.30;;;;;;;;;;107966;277;40004;-30
2023/04/03 11:04:45;;;;;;;3.50;1.20;;;;;;;;;;108084;268;42796;-30
2023/04/03 11:07:27;;;;;;;3.20;1.20;;;;;;;;;;107999;268;42142;-30
2023/04/03 11:10:13;;;;;;;3.60;1.30;;;;;;;;;;107891;277;39077;-30
2023/04/03 11:12:55;;;;;;;3.10;1.20;;;;;;;;;;107997;269;40656;-30
2023/04/03 11:15:34;;;;;;;3.10;1.30;;;;;;;;;;107968;276;44034;-29
2023/04/03 11:18:16;;;;;;;3.60;1.30;;;;;;;;;;107974;268;42142;-29
2023/04/03 11:21:02;;;;;;;3.50;1.30;;;;;;;;;;107978;268;38908;-30
2023/04/03 11:23:39;;;;;;;3.50;1.50;;;;;;;;;;108038;273;41065;-29
2023/04/03 11:26:26;;;;;;;3.80;1.40;;;;;;;;;;107956;277;42872;-29
2023/04/03 11:29:05;;;;;;;3.60;1.40;;;;;;;;;;107988;269;42095;-29
2023/04/03 11:32:03;;;;;;;3.30;1.30;;;;;;;;;;107973;276;44823;-29
2023/04/03 11:34:41;;;;;;;3.10;1.20;;;;;;;;;;108014;276;39820;-29
2023/04/03 11:37:29;;;;;;;3.60;1.20;;;;;;;;;;108051;273;42968;-29
2023/04/03 11:40:08;;;;;;;3.20;1.40;;;;;;;;;;108051;276;42287;-29
2023/04/03 11:42:49;;;;;;;2.90;1.10;;;;;;;;;;107999;273;40053;-29
2023/04/03 11:45:36;;;;;;;3.70;1.20;;;;;;;;;;107966;276;40867;-29
2023/04/03 11:48:56;;;;;;;3.40;1.10;;;;;;;;;;108058;276;43989;-29
2023/04/03 11:51:56;;;;;;;3.10;1.10;;;;;;;;;;107952;276;42194;-29
2023/04/03 11:54:52;;;;;;;4.30;1.30;;;;;;;;;;108008;273;39888;-29
2023/04/03 11:58:10;;;;;;;3.80;1.50;;;;;;;;;;107977;269;40976;-30
2023/04/03 12:01:15;;;;;;;3.70;1.40;;;;;;;;;;107997;276;42838;-30
2023/04/03 12:04:17;;;;;;;3.10;1.40;;;;;;;;;;107816;268;42170;-30
2023/04/03 12:07:16;;;;;;;3.00;1.20;;;;;;;;;;108001;269;38872;-30
2023/04/03 12:10:26;;;;;;;3.30;1.20;;;;;;;;;;108019;273;39914;-30
2023/04/03 12:13:22;;;;;;;3.30;1.20;;;;;;;;;;107913;277;48741;-30
2023/04/03 12:16:00;;;;;;;3.30;1.40;;;;;;;;;;107866;271;42155;-30
2023/04/03 12:19:03;;;;;;;3.50;1.20;;;;;;;;;;108020;272;38547;-31
2023/04/03 12:22:09;;;;;;;3.20;1.20;;;;;;;;;;108021;276;39426;-30
2023/04/03 12:24:45;;;;;;;2.80;1.10;;;;;;;;;;107949;273;44029;-31
2023/04/03 12:27:32;;;;;;;3.40;1.40;;;;;;;;;;107935;277;43259;-31
2023/04/03 12:30:24;;;;;;;3.50;1.30;;;;;;;;;;107902;273;38744;-31
2023/04/03 12:33:26;;;;;;;3.20;1.10;;;;;;;;;;107891;270;39809;-31
2023/04/03 12:36:12;;;;;;;3.00;1.00;;;;;;;;;;107902;277;43026;-30
2023/04/03 12:39:16;;;;;;;3.40;1.20;;;;;;;;;;107859;270;43579;-30
2023/04/03 12:42:02;;;;;;;2.90;1.20;;;;;;;;;;107820;277;38772;-31
2023/04/03 12:44:53;;;;;;;3.50;1.20;;;;;;;;;;107874;270;39826;-30
2023/04/03 12:47:37;;;;;;;3.00;1.00;;;;;;;;;;107870;270;43018;-30
2023/04/03 12:50:29;;;;;;;3.10;1.10;;;;;;;;;;107894;277;43211;-30
2023/04/03 12:53:11;;;;;;;2.60;1.00;;;;;;;;;;107872;277;38755;-30
2023/04/03 12:55:49;;;;;;;3.10;1.00;;;;;;;;;;107899;270;39922;-29
2023/04/03 12:58:30;;;;;;;3.00;1.10;;;;;;;;;;107885;273;42646;-29
2023/04/03 13:01:10;;;;;;;3.20;1.10;;;;;;;;;;107791;277;178466;-30
2023/04/03 13:03:48;;;;;;;3.30;1.20;;;;;;;;;;107901;270;38828;-30
2023/04/03 13:06:26;;;;;;;3.50;1.20;;;;;;;;;;107819;277;175506;-30
2023/04/03 13:09:02;;;;;;;3.20;1.20;;;;;;;;;;107895;278;42993;-30
2023/04/03 13:11:42;;;;;;;2.80;1.20;;;;;;;;;;107919;277;42140;-31
2023/04/03 13:14:27;;;;;;;3.20;1.20;;;;;;;;;;107874;270;38823;-31
2023/04/03 13:17:07;;;;;;;2.90;1.10;;;;;;;;;;107865;277;39706;-31
2023/04/03 13:19:45;;;;;;;3.10;1.20;;;;;;;;;;107901;273;42986;-31
2023/04/03 13:22:30;;;;;;;2.90;1.10;;;;;;;;;;107893;270;42122;-31
2023/04/03 13:25:18;;;;;;;2.90;1.10;;;;;;;;;;107994;276;38752;-32
2023/04/03 13:28:01;;;;;;;3.10;1.10;;;;;;;;;;108012;268;41415;-32
2023/04/03 13:31:03;;;;;;;3.00;1.10;;;;;;;;;;107937;277;43985;-32
2023/04/03 13:33:44;;;;;;;2.80;1.20;;;;;;;;;;107916;273;42172;-32
2023/04/03 13:36:25;;;;;;;3.80;1.10;;;;;;;;;;108003;273;38796;-31
2023/04/03 13:39:22;;;;;;;3.60;1.10;;;;;;;;;;108026;273;39867;-31
2023/04/03 13:42:01;;;;;;;2.70;1.00;;;;;;;;;;107939;273;42927;-31
2023/04/03 13:44:42;;;;;;;2.80;1.00;;;;;;;;;;107959;273;42131;-31
2023/04/03 13:47:26;;;;;;;3.00;1.10;;;;;;;;;;107999;273;38673;-31
2023/04/03 13:50:19;;;;;;;2.30;0.90;;;;;;;;;;107924;277;40297;-31
2023/04/03 13:53:01;;;;;;;2.90;1.00;;;;;;;;;;107934;268;44025;-31
2023/04/03 13:55:40;;;;;;;3.00;1.10;;;;;;;;;;107992;268;42149;-31
2023/04/03 13:58:30;;;;;;;2.90;1.10;;;;;;;;;;107974;268;38827;-31
2023/04/03 14:01:16;;;;;;;2.60;0.90;;;;;;;;;;108006;268;39822;-32
2023/04/03 14:03:58;;;;;;;2.50;1.00;;;;;;;;;;107889;276;42814;-32
2023/04/03 14:06:34;;;;;;;2.60;1.00;;;;;;;;;;107973;268;41836;-32
2023/04/03 14:09:16;;;;;;;2.30;0.90;;;;;;;;;;107975;276;38805;-32
2023/04/03 14:12:05;;;;;;;3.30;1.10;;;;;;;;;;107910;268;39831;-32
2023/04/03 14:14:46;;;;;;;2.90;1.00;;;;;;;;;;107969;276;42931;-31
2023/04/03 14:17:27;;;;;;;2.90;0.90;;;;;;;;;;108002;268;42111;-32
2023/04/03 14:20:03;;;;;;;3.10;1.20;;;;;;;;;;107952;273;38646;-31
2023/04/03 14:22:40;;;;;;;2.70;0.90;;;;;;;;;;108012;273;39415;-31
2023/04/03 14:25:18;;;;;;;3.10;1.00;;;;;;;;;;107908;277;42851;-31
2023/04/03 14:27:59;;;;;;;2.60;1.00;;;;;;;;;;107933;273;42139;-31
2023/04/03 14:30:37;;;;;;;;;;;;;;;;;;108000;268;38763;-31
2023/04/03 14:33:20;;;;;;;2.80;0.90;;;;;;;;;;107994;273;41277;-31
2023/04/03 14:35:56;;;;;;;3.00;1.10;;;;;;;;;;108064;269;48832;-31
2023/04/03 14:38:37;;;;;;;2.40;0.90;;;;;;;;;;108014;273;42441;-31
2023/04/03 14:41:15;;;;;;;3.40;1.00;;;;;;;;;;108010;268;39830;-31
2023/04/03 14:43:51;;;;;;;3.50;1.20;;;;;;;;;;108045;268;39697;-31
2023/04/03 14:46:41;;;;;;;2.60;1.00;;;;;;;;;;107976;268;49109;-31
2023/04/03 14:49:34;;;;;;;2.70;1.10;;;;;;;;;;108014;268;42146;-31
2023/04/03 14:52:20;;;;;;;2.20;0.80;;;;;;;;;;107970;273;38945;-30
2023/04/03 14:54:56;;;;;;;3.30;1.10;;;;;;;;;;107941;277;41178;-30
2023/04/03 14:57:33;;;;;;;2.60;1.00;;;;;;;;;;107981;273;43338;-30
2023/04/03 15:00:19;;;;;;;2.70;1.10;;;;;;;;;;108021;273;42392;-30
2023/04/03 15:02:55;;;;;;;2.50;0.90;;;;;;;;;;107998;277;38540;-31
2023/04/03 15:05:30;;;;;;;2.30;0.90;;;;;;;;;;107942;277;39435;-31
2023/04/03 15:08:09;;;;;;;2.40;0.90;;;;;;;;;;107993;273;42612;-31
2023/04/03 15:10:45;;;;;;;2.50;0.90;;;;;;;;;;108029;273;42231;-31
2023/04/03 15:13:22;;;;;;;2.50;0.90;;;;;;;;;;108032;269;38794;-31
2023/04/03 15:15:56;;;;;;;2.20;0.90;;;;;;;;;;107996;268;39704;-31
2023/04/03 15:18:36;;;;;;;2.10;0.80;;;;;;;;;;107982;277;42862;-30
2023/04/03 15:21:09;;;;;;;2.70;0.90;;;;;;;;;;108000;276;42098;-30
2023/04/03 15:23:47;;;;;;;2.80;1.00;;;;;;;;;;107954;277;38927;-30
2023/04/03 15:26:23;;;;;;;2.20;0.90;;;;;;;;;;107951;276;40801;-30
2023/04/03 15:28:56;;;;;;;2.60;1.00;;;;;;;;;;108018;268;42844;-31
2023/04/03 15:31:34;;;;;;;2.60;0.90;;;;;;;;;;107955;273;42252;-31
2023/04/03 15:34:09;;;;;;;2.20;0.90;;;;;;;;;;107990;277;38534;-31
2023/04/03 15:36:43;;;;;;;2.40;1.00;;;;;;;;;;107937;269;39745;-31
2023/04/03 15:39:17;;;;;;;2.50;1.00;;;;;;;;;;107984;269;44189;-31
2023/04/03 15:41:53;;;;;;;2.60;0.90;;;;;;;;;;107948;269;42160;-30
2023/04/03 15:44:26;;;;;;;2.70;1.20;;;;;;;;;;108019;269;38870;-30
2023/04/03 15:47:04;;;;;;;2.30;0.80;;;;;;;;;;107970;274;39716;-30
2023/04/03 15:49:39;;;;;;;2.70;1.00;;;;;;;;;;108035;276;43016;-30
2023/04/03 15:52:19;;;;;;;2.40;1.00;;;;;;;;;;107974;269;43538;-30
2023/04/03 15:54:53;;;;;;;2.40;0.90;;;;;;;;;;107996;273;38939;-30
2023/04/03 15:57:28;;;;;;;2.50;1.00;;;;;;;;;;107974;273;39720;-31
2023/04/03 16:00:03;;;;;;;2.80;1.00;;;;;;;;;;108018;270;43099;-31